sensor_id;sensor_type;location;lat;lon;timestamp;P1;durP1;ratioP1;P2;durP2;ratioP2
32250;SDS011;41295;48.518;9.206;2023-08-30T00:01:32;11.23;;;7.07;;
32250;SDS011;41295;48.518;9.206;2023-08-30T00:03:35;7.55;;;6.75;;
32250;SDS011;41295;48.518;9.206;2023-08-30T00:05:38;9.18;;;6.53;;
32250;SDS011;41295;48.518;9.206;2023-08-30T00:07:41;8.80;;;7.07;;
32250;SDS011;41295;48.518;9.206;2023-08-30T00:09:45;9.52;;;6.40;;
32250;SDS011;41295;48.518;9.206;2023-08-30T00:11:46;7.85;;;6.28;;
32250;SDS011;41295;48.518;9.206;2023-08-30T00:13:49;8.93;;;5.63;;
32250;SDS011;41295;48.518;9.206;2023-08-30T00:15:52;8.32;;;6.40;;
32250;SDS011;41295;48.518;9.206;2023-08-30T00:17:55;10.75;;;5.80;;
32250;SDS011;41295;48.518;9.206;2023-08-30T00:19:58;9.13;;;6.65;;
32250;SDS011;41295;48.518;9.206;2023-08-30T00:22:01;7.07;;;6.38;;
32250;SDS011;41295;48.518;9.206;2023-08-30T00:24:04;8.02;;;6.07;;
32250;SDS011;41295;48.518;9.206;2023-08-30T00:26:09;9.15;;;6.28;;
32250;SDS011;41295;48.518;9.206;2023-08-30T00:28:11;8.43;;;6.00;;
32250;SDS011;41295;48.518;9.206;2023-08-30T00:30:14;14.23;;;6.55;;
32250;SDS011;41295;48.518;9.206;2023-08-30T00:32:17;8.77;;;5.85;;
32250;SDS011;41295;48.518;9.206;2023-08-30T00:34:19;10.00;;;7.38;;
32250;SDS011;41295;48.518;9.206;2023-08-30T00:36:22;10.40;;;6.47;;
32250;SDS011;41295;48.518;9.206;2023-08-30T00:38:25;8.32;;;6.82;;
32250;SDS011;41295;48.518;9.206;2023-08-30T00:40:28;10.18;;;6.43;;
32250;SDS011;41295;48.518;9.206;2023-08-30T00:42:32;9.05;;;6.70;;
32250;SDS011;41295;48.518;9.206;2023-08-30T00:44:35;11.05;;;6.82;;
32250;SDS011;41295;48.518;9.206;2023-08-30T00:46:38;6.55;;;5.95;;
32250;SDS011;41295;48.518;9.206;2023-08-30T00:48:40;7.18;;;6.47;;
32250;SDS011;41295;48.518;9.206;2023-08-30T00:50:42;8.18;;;6.35;;
32250;SDS011;41295;48.518;9.206;2023-08-30T00:52:45;10.02;;;6.28;;
32250;SDS011;41295;48.518;9.206;2023-08-30T00:54:47;9.75;;;6.05;;
32250;SDS011;41295;48.518;9.206;2023-08-30T00:56:50;8.25;;;5.65;;
32250;SDS011;41295;48.518;9.206;2023-08-30T00:58:55;8.35;;;5.88;;
32250;SDS011;41295;48.518;9.206;2023-08-30T01:00:58;6.95;;;6.03;;
32250;SDS011;41295;48.518;9.206;2023-08-30T01:03:01;8.15;;;6.25;;
32250;SDS011;41295;48.518;9.206;2023-08-30T01:05:04;8.38;;;5.93;;
32250;SDS011;41295;48.518;9.206;2023-08-30T01:07:07;8.10;;;5.72;;
32250;SDS011;41295;48.518;9.206;2023-08-30T01:09:10;7.85;;;5.65;;
32250;SDS011;41295;48.518;9.206;2023-08-30T01:11:18;6.70;;;6.00;;
32250;SDS011;41295;48.518;9.206;2023-08-30T01:13:25;7.30;;;5.90;;
32250;SDS011;41295;48.518;9.206;2023-08-30T01:15:33;10.93;;;5.82;;
32250;SDS011;41295;48.518;9.206;2023-08-30T01:17:37;9.07;;;6.38;;
32250;SDS011;41295;48.518;9.206;2023-08-30T01:19:46;10.63;;;5.93;;
32250;SDS011;41295;48.518;9.206;2023-08-30T01:21:52;7.55;;;5.85;;
32250;SDS011;41295;48.518;9.206;2023-08-30T01:24:00;7.15;;;6.22;;
32250;SDS011;41295;48.518;9.206;2023-08-30T01:26:08;6.85;;;6.03;;
32250;SDS011;41295;48.518;9.206;2023-08-30T01:28:15;7.07;;;6.28;;
32250;SDS011;41295;48.518;9.206;2023-08-30T01:30:20;8.77;;;6.13;;
32250;SDS011;41295;48.518;9.206;2023-08-30T01:32:24;9.35;;;6.30;;
32250;SDS011;41295;48.518;9.206;2023-08-30T01:34:30;7.82;;;6.03;;
32250;SDS011;41295;48.518;9.206;2023-08-30T01:36:33;9.23;;;6.38;;
32250;SDS011;41295;48.518;9.206;2023-08-30T01:38:37;7.32;;;6.30;;
32250;SDS011;41295;48.518;9.206;2023-08-30T01:40:42;8.10;;;6.80;;
32250;SDS011;41295;48.518;9.206;2023-08-30T01:42:44;10.15;;;6.95;;
32250;SDS011;41295;48.518;9.206;2023-08-30T01:44:51;12.10;;;6.78;;
32250;SDS011;41295;48.518;9.206;2023-08-30T01:46:56;10.10;;;6.90;;
32250;SDS011;41295;48.518;9.206;2023-08-30T01:49:00;10.55;;;6.57;;
32250;SDS011;41295;48.518;9.206;2023-08-30T01:51:04;8.20;;;6.47;;
32250;SDS011;41295;48.518;9.206;2023-08-30T01:53:07;9.00;;;7.47;;
32250;SDS011;41295;48.518;9.206;2023-08-30T01:55:11;7.75;;;6.95;;
32250;SDS011;41295;48.518;9.206;2023-08-30T01:57:16;8.55;;;7.00;;
32250;SDS011;41295;48.518;9.206;2023-08-30T01:59:19;7.18;;;6.18;;
32250;SDS011;41295;48.518;9.206;2023-08-30T02:01:23;7.13;;;6.32;;
32250;SDS011;41295;48.518;9.206;2023-08-30T02:03:26;9.77;;;7.18;;
32250;SDS011;41295;48.518;9.206;2023-08-30T02:05:28;8.23;;;6.60;;
32250;SDS011;41295;48.518;9.206;2023-08-30T02:07:33;9.20;;;6.57;;
32250;SDS011;41295;48.518;9.206;2023-08-30T02:09:45;12.40;;;7.68;;
32250;SDS011;41295;48.518;9.206;2023-08-30T02:11:52;9.20;;;7.38;;
32250;SDS011;41295;48.518;9.206;2023-08-30T02:13:59;8.50;;;6.90;;
32250;SDS011;41295;48.518;9.206;2023-08-30T02:16:05;9.15;;;7.05;;
32250;SDS011;41295;48.518;9.206;2023-08-30T02:18:12;11.23;;;7.30;;
32250;SDS011;41295;48.518;9.206;2023-08-30T02:20:13;8.13;;;6.65;;
32250;SDS011;41295;48.518;9.206;2023-08-30T02:22:17;8.40;;;7.10;;
32250;SDS011;41295;48.518;9.206;2023-08-30T02:24:19;12.23;;;6.88;;
32250;SDS011;41295;48.518;9.206;2023-08-30T02:26:22;10.25;;;6.72;;
32250;SDS011;41295;48.518;9.206;2023-08-30T02:28:24;7.82;;;6.50;;
32250;SDS011;41295;48.518;9.206;2023-08-30T02:30:27;7.95;;;7.13;;
32250;SDS011;41295;48.518;9.206;2023-08-30T02:32:30;10.60;;;7.13;;
32250;SDS011;41295;48.518;9.206;2023-08-30T02:34:35;10.82;;;7.43;;
32250;SDS011;41295;48.518;9.206;2023-08-30T02:36:38;9.32;;;7.45;;
32250;SDS011;41295;48.518;9.206;2023-08-30T02:38:41;13.35;;;7.60;;
32250;SDS011;41295;48.518;9.206;2023-08-30T02:42:45;11.80;;;7.38;;
32250;SDS011;41295;48.518;9.206;2023-08-30T02:44:48;14.98;;;8.20;;
32250;SDS011;41295;48.518;9.206;2023-08-30T02:46:50;12.73;;;7.88;;
32250;SDS011;41295;48.518;9.206;2023-08-30T02:48:53;13.40;;;8.48;;
32250;SDS011;41295;48.518;9.206;2023-08-30T02:50:58;13.68;;;8.63;;
32250;SDS011;41295;48.518;9.206;2023-08-30T02:53:01;10.90;;;8.45;;
32250;SDS011;41295;48.518;9.206;2023-08-30T02:55:05;17.15;;;8.93;;
32250;SDS011;41295;48.518;9.206;2023-08-30T02:57:08;9.23;;;8.00;;
32250;SDS011;41295;48.518;9.206;2023-08-30T02:59:11;12.27;;;9.07;;
32250;SDS011;41295;48.518;9.206;2023-08-30T03:01:14;11.07;;;8.65;;
32250;SDS011;41295;48.518;9.206;2023-08-30T03:03:17;12.40;;;9.55;;
32250;SDS011;41295;48.518;9.206;2023-08-30T03:05:20;10.95;;;8.90;;
32250;SDS011;41295;48.518;9.206;2023-08-30T03:07:24;11.80;;;9.25;;
32250;SDS011;41295;48.518;9.206;2023-08-30T03:09:26;9.65;;;8.65;;
32250;SDS011;41295;48.518;9.206;2023-08-30T03:11:29;12.63;;;9.48;;
32250;SDS011;41295;48.518;9.206;2023-08-30T03:13:31;11.85;;;9.00;;
32250;SDS011;41295;48.518;9.206;2023-08-30T03:15:34;10.45;;;8.68;;
32250;SDS011;41295;48.518;9.206;2023-08-30T03:17:36;10.55;;;8.73;;
32250;SDS011;41295;48.518;9.206;2023-08-30T03:19:39;10.70;;;9.15;;
32250;SDS011;41295;48.518;9.206;2023-08-30T03:21:42;9.73;;;8.48;;
32250;SDS011;41295;48.518;9.206;2023-08-30T03:23:46;11.25;;;8.82;;
32250;SDS011;41295;48.518;9.206;2023-08-30T03:25:49;14.48;;;9.32;;
32250;SDS011;41295;48.518;9.206;2023-08-30T03:27:51;11.43;;;8.60;;
32250;SDS011;41295;48.518;9.206;2023-08-30T03:29:54;12.90;;;9.35;;
32250;SDS011;41295;48.518;9.206;2023-08-30T03:31:57;10.70;;;8.93;;
32250;SDS011;41295;48.518;9.206;2023-08-30T03:33:59;11.32;;;8.75;;
32250;SDS011;41295;48.518;9.206;2023-08-30T03:36:02;9.52;;;8.30;;
32250;SDS011;41295;48.518;9.206;2023-08-30T03:38:06;10.50;;;8.60;;
32250;SDS011;41295;48.518;9.206;2023-08-30T03:40:11;10.10;;;8.13;;
32250;SDS011;41295;48.518;9.206;2023-08-30T03:42:14;10.75;;;7.95;;
32250;SDS011;41295;48.518;9.206;2023-08-30T03:44:16;11.75;;;8.68;;
32250;SDS011;41295;48.518;9.206;2023-08-30T03:46:19;9.50;;;8.50;;
32250;SDS011;41295;48.518;9.206;2023-08-30T03:48:22;11.60;;;8.52;;
32250;SDS011;41295;48.518;9.206;2023-08-30T03:50:24;14.80;;;8.70;;
32250;SDS011;41295;48.518;9.206;2023-08-30T03:52:27;13.23;;;8.68;;
32250;SDS011;41295;48.518;9.206;2023-08-30T03:54:31;19.23;;;8.40;;
32250;SDS011;41295;48.518;9.206;2023-08-30T03:56:35;12.00;;;8.50;;
32250;SDS011;41295;48.518;9.206;2023-08-30T03:58:37;12.18;;;7.88;;
32250;SDS011;41295;48.518;9.206;2023-08-30T04:00:40;8.40;;;7.38;;
32250;SDS011;41295;48.518;9.206;2023-08-30T04:02:42;11.25;;;7.93;;
32250;SDS011;41295;48.518;9.206;2023-08-30T04:04:46;10.95;;;7.18;;
32250;SDS011;41295;48.518;9.206;2023-08-30T04:06:49;8.57;;;7.40;;
32250;SDS011;41295;48.518;9.206;2023-08-30T04:08:51;7.80;;;6.75;;
32250;SDS011;41295;48.518;9.206;2023-08-30T04:10:54;9.75;;;7.50;;
32250;SDS011;41295;48.518;9.206;2023-08-30T04:12:58;8.32;;;7.30;;
32250;SDS011;41295;48.518;9.206;2023-08-30T04:15:01;15.95;;;9.68;;
32250;SDS011;41295;48.518;9.206;2023-08-30T04:17:04;8.52;;;7.53;;
32250;SDS011;41295;48.518;9.206;2023-08-30T04:19:07;9.77;;;7.75;;
32250;SDS011;41295;48.518;9.206;2023-08-30T04:21:10;13.70;;;9.48;;
32250;SDS011;41295;48.518;9.206;2023-08-30T04:23:13;16.02;;;10.02;;
32250;SDS011;41295;48.518;9.206;2023-08-30T04:25:16;15.88;;;9.75;;
32250;SDS011;41295;48.518;9.206;2023-08-30T04:27:19;16.33;;;11.18;;
32250;SDS011;41295;48.518;9.206;2023-08-30T04:29:23;18.77;;;10.00;;
32250;SDS011;41295;48.518;9.206;2023-08-30T04:31:25;13.82;;;9.05;;
32250;SDS011;41295;48.518;9.206;2023-08-30T04:33:28;14.27;;;8.65;;
32250;SDS011;41295;48.518;9.206;2023-08-30T04:35:31;14.52;;;8.30;;
32250;SDS011;41295;48.518;9.206;2023-08-30T04:37:34;9.75;;;7.68;;
32250;SDS011;41295;48.518;9.206;2023-08-30T04:39:37;15.82;;;8.25;;
32250;SDS011;41295;48.518;9.206;2023-08-30T04:41:40;14.20;;;8.20;;
32250;SDS011;41295;48.518;9.206;2023-08-30T04:43:42;10.93;;;8.50;;
32250;SDS011;41295;48.518;9.206;2023-08-30T04:45:48;11.80;;;8.18;;
32250;SDS011;41295;48.518;9.206;2023-08-30T04:47:51;10.00;;;8.25;;
32250;SDS011;41295;48.518;9.206;2023-08-30T04:49:54;12.80;;;8.50;;
32250;SDS011;41295;48.518;9.206;2023-08-30T04:51:57;10.07;;;8.00;;
32250;SDS011;41295;48.518;9.206;2023-08-30T04:53:59;11.40;;;7.97;;
32250;SDS011;41295;48.518;9.206;2023-08-30T04:56:09;11.55;;;7.85;;
32250;SDS011;41295;48.518;9.206;2023-08-30T04:58:12;12.10;;;7.88;;
32250;SDS011;41295;48.518;9.206;2023-08-30T05:00:15;9.48;;;7.65;;
32250;SDS011;41295;48.518;9.206;2023-08-30T05:02:20;12.15;;;8.05;;
32250;SDS011;41295;48.518;9.206;2023-08-30T05:04:24;12.68;;;7.88;;
32250;SDS011;41295;48.518;9.206;2023-08-30T05:06:26;9.77;;;7.50;;
32250;SDS011;41295;48.518;9.206;2023-08-30T05:08:29;11.13;;;7.53;;
32250;SDS011;41295;48.518;9.206;2023-08-30T05:10:32;14.48;;;8.25;;
32250;SDS011;41295;48.518;9.206;2023-08-30T05:12:35;10.68;;;7.38;;
32250;SDS011;41295;48.518;9.206;2023-08-30T05:14:38;10.68;;;8.43;;
32250;SDS011;41295;48.518;9.206;2023-08-30T05:16:42;11.30;;;9.00;;
32250;SDS011;41295;48.518;9.206;2023-08-30T05:18:46;11.82;;;8.40;;
32250;SDS011;41295;48.518;9.206;2023-08-30T05:20:50;9.40;;;8.27;;
32250;SDS011;41295;48.518;9.206;2023-08-30T05:22:52;14.45;;;8.40;;
32250;SDS011;41295;48.518;9.206;2023-08-30T05:24:55;16.40;;;8.15;;
32250;SDS011;41295;48.518;9.206;2023-08-30T05:26:58;13.10;;;8.55;;
32250;SDS011;41295;48.518;9.206;2023-08-30T05:29:01;10.80;;;8.98;;
32250;SDS011;41295;48.518;9.206;2023-08-30T05:31:04;14.18;;;8.90;;
32250;SDS011;41295;48.518;9.206;2023-08-30T05:33:07;14.10;;;9.18;;
32250;SDS011;41295;48.518;9.206;2023-08-30T05:35:11;11.52;;;9.25;;
32250;SDS011;41295;48.518;9.206;2023-08-30T05:37:13;12.65;;;9.23;;
32250;SDS011;41295;48.518;9.206;2023-08-30T05:39:16;14.00;;;9.43;;
32250;SDS011;41295;48.518;9.206;2023-08-30T05:41:19;12.48;;;8.85;;
32250;SDS011;41295;48.518;9.206;2023-08-30T05:43:22;11.63;;;9.52;;
32250;SDS011;41295;48.518;9.206;2023-08-30T05:45:25;11.90;;;9.60;;
32250;SDS011;41295;48.518;9.206;2023-08-30T05:47:27;10.27;;;9.00;;
32250;SDS011;41295;48.518;9.206;2023-08-30T05:49:30;12.07;;;9.32;;
32250;SDS011;41295;48.518;9.206;2023-08-30T05:51:34;12.82;;;8.57;;
32250;SDS011;41295;48.518;9.206;2023-08-30T05:53:37;11.40;;;9.65;;
32250;SDS011;41295;48.518;9.206;2023-08-30T05:55:39;15.02;;;8.25;;
32250;SDS011;41295;48.518;9.206;2023-08-30T05:57:42;14.27;;;9.32;;
32250;SDS011;41295;48.518;9.206;2023-08-30T05:59:45;11.82;;;8.90;;
32250;SDS011;41295;48.518;9.206;2023-08-30T06:01:47;16.08;;;9.52;;
32250;SDS011;41295;48.518;9.206;2023-08-30T06:03:50;14.45;;;9.10;;
32250;SDS011;41295;48.518;9.206;2023-08-30T06:05:53;14.05;;;9.00;;
32250;SDS011;41295;48.518;9.206;2023-08-30T06:07:57;13.60;;;8.73;;
32250;SDS011;41295;48.518;9.206;2023-08-30T06:10:00;11.85;;;9.77;;
32250;SDS011;41295;48.518;9.206;2023-08-30T06:12:01;12.65;;;8.82;;
32250;SDS011;41295;48.518;9.206;2023-08-30T06:14:04;15.43;;;9.75;;
32250;SDS011;41295;48.518;9.206;2023-08-30T06:16:07;9.77;;;8.77;;
32250;SDS011;41295;48.518;9.206;2023-08-30T06:18:10;11.98;;;9.95;;
32250;SDS011;41295;48.518;9.206;2023-08-30T06:20:13;13.23;;;9.27;;
32250;SDS011;41295;48.518;9.206;2023-08-30T06:22:16;13.60;;;9.70;;
32250;SDS011;41295;48.518;9.206;2023-08-30T06:24:20;10.65;;;8.90;;
32250;SDS011;41295;48.518;9.206;2023-08-30T06:26:23;13.02;;;9.38;;
32250;SDS011;41295;48.518;9.206;2023-08-30T06:28:26;13.65;;;9.68;;
32250;SDS011;41295;48.518;9.206;2023-08-30T06:30:27;12.05;;;10.05;;
32250;SDS011;41295;48.518;9.206;2023-08-30T06:32:30;14.60;;;9.77;;
32250;SDS011;41295;48.518;9.206;2023-08-30T06:34:34;12.45;;;9.35;;
32250;SDS011;41295;48.518;9.206;2023-08-30T06:36:37;14.38;;;8.93;;
32250;SDS011;41295;48.518;9.206;2023-08-30T06:38:40;11.43;;;9.15;;
32250;SDS011;41295;48.518;9.206;2023-08-30T06:40:45;13.30;;;9.90;;
32250;SDS011;41295;48.518;9.206;2023-08-30T06:42:48;12.55;;;9.50;;
32250;SDS011;41295;48.518;9.206;2023-08-30T06:44:50;10.88;;;9.00;;
32250;SDS011;41295;48.518;9.206;2023-08-30T06:46:53;12.55;;;8.88;;
32250;SDS011;41295;48.518;9.206;2023-08-30T06:48:56;13.00;;;8.95;;
32250;SDS011;41295;48.518;9.206;2023-08-30T06:50:58;13.15;;;8.88;;
32250;SDS011;41295;48.518;9.206;2023-08-30T06:53:01;11.38;;;8.50;;
32250;SDS011;41295;48.518;9.206;2023-08-30T06:55:04;10.68;;;8.85;;
32250;SDS011;41295;48.518;9.206;2023-08-30T06:57:09;11.18;;;9.00;;
32250;SDS011;41295;48.518;9.206;2023-08-30T06:59:11;11.35;;;9.02;;
32250;SDS011;41295;48.518;9.206;2023-08-30T07:01:14;11.05;;;9.38;;
32250;SDS011;41295;48.518;9.206;2023-08-30T07:03:17;11.27;;;8.65;;
32250;SDS011;41295;48.518;9.206;2023-08-30T07:05:20;11.68;;;8.43;;
32250;SDS011;41295;48.518;9.206;2023-08-30T07:07:24;17.80;;;9.65;;
32250;SDS011;41295;48.518;9.206;2023-08-30T07:09:27;19.75;;;9.88;;
32250;SDS011;41295;48.518;9.206;2023-08-30T07:11:30;13.18;;;9.45;;
32250;SDS011;41295;48.518;9.206;2023-08-30T07:13:36;19.20;;;9.25;;
32250;SDS011;41295;48.518;9.206;2023-08-30T07:15:39;13.52;;;9.38;;
32250;SDS011;41295;48.518;9.206;2023-08-30T07:17:42;13.68;;;9.38;;
32250;SDS011;41295;48.518;9.206;2023-08-30T07:19:54;10.55;;;9.00;;
32250;SDS011;41295;48.518;9.206;2023-08-30T07:21:56;10.55;;;8.75;;
32250;SDS011;41295;48.518;9.206;2023-08-30T07:23:59;11.13;;;8.85;;
32250;SDS011;41295;48.518;9.206;2023-08-30T07:26:02;14.38;;;9.40;;
32250;SDS011;41295;48.518;9.206;2023-08-30T07:28:05;13.60;;;9.18;;
32250;SDS011;41295;48.518;9.206;2023-08-30T07:30:09;13.95;;;8.60;;
32250;SDS011;41295;48.518;9.206;2023-08-30T07:32:13;14.65;;;8.60;;
32250;SDS011;41295;48.518;9.206;2023-08-30T07:34:15;12.80;;;8.23;;
32250;SDS011;41295;48.518;9.206;2023-08-30T07:38:21;11.05;;;7.60;;
32250;SDS011;41295;48.518;9.206;2023-08-30T07:40:24;9.25;;;8.07;;
32250;SDS011;41295;48.518;9.206;2023-08-30T07:42:29;12.15;;;8.20;;
32250;SDS011;41295;48.518;9.206;2023-08-30T07:44:32;11.45;;;7.90;;
32250;SDS011;41295;48.518;9.206;2023-08-30T07:46:36;10.75;;;8.10;;
32250;SDS011;41295;48.518;9.206;2023-08-30T07:48:38;10.07;;;7.32;;
32250;SDS011;41295;48.518;9.206;2023-08-30T07:50:40;9.35;;;7.60;;
32250;SDS011;41295;48.518;9.206;2023-08-30T07:52:43;12.32;;;7.95;;
32250;SDS011;41295;48.518;9.206;2023-08-30T07:54:47;10.88;;;7.53;;
32250;SDS011;41295;48.518;9.206;2023-08-30T07:56:49;9.60;;;7.40;;
32250;SDS011;41295;48.518;9.206;2023-08-30T07:58:52;11.90;;;6.80;;
32250;SDS011;41295;48.518;9.206;2023-08-30T08:00:56;8.75;;;6.93;;
32250;SDS011;41295;48.518;9.206;2023-08-30T08:03:00;10.27;;;7.50;;
32250;SDS011;41295;48.518;9.206;2023-08-30T08:05:03;11.07;;;7.70;;
32250;SDS011;41295;48.518;9.206;2023-08-30T08:07:06;12.25;;;7.40;;
32250;SDS011;41295;48.518;9.206;2023-08-30T08:09:09;9.57;;;7.03;;
32250;SDS011;41295;48.518;9.206;2023-08-30T08:11:12;10.00;;;7.35;;
32250;SDS011;41295;48.518;9.206;2023-08-30T08:13:14;8.82;;;6.53;;
32250;SDS011;41295;48.518;9.206;2023-08-30T08:15:17;10.90;;;6.22;;
32250;SDS011;41295;48.518;9.206;2023-08-30T08:17:20;9.27;;;5.70;;
32250;SDS011;41295;48.518;9.206;2023-08-30T08:19:24;8.32;;;5.90;;
32250;SDS011;41295;48.518;9.206;2023-08-30T08:21:27;7.03;;;5.13;;
32250;SDS011;41295;48.518;9.206;2023-08-30T08:23:30;10.82;;;6.18;;
32250;SDS011;41295;48.518;9.206;2023-08-30T08:25:33;5.57;;;4.72;;
32250;SDS011;41295;48.518;9.206;2023-08-30T08:27:36;6.35;;;5.00;;
32250;SDS011;41295;48.518;9.206;2023-08-30T08:29:39;8.63;;;5.50;;
32250;SDS011;41295;48.518;9.206;2023-08-30T08:31:42;6.53;;;5.05;;
32250;SDS011;41295;48.518;9.206;2023-08-30T08:33:44;8.63;;;5.30;;
32250;SDS011;41295;48.518;9.206;2023-08-30T08:35:49;8.07;;;5.22;;
32250;SDS011;41295;48.518;9.206;2023-08-30T08:37:52;12.35;;;5.97;;
32250;SDS011;41295;48.518;9.206;2023-08-30T08:39:54;10.70;;;5.93;;
32250;SDS011;41295;48.518;9.206;2023-08-30T08:41:57;6.93;;;5.55;;
32250;SDS011;41295;48.518;9.206;2023-08-30T08:44:02;9.00;;;5.32;;
32250;SDS011;41295;48.518;9.206;2023-08-30T08:46:07;5.88;;;5.18;;
32250;SDS011;41295;48.518;9.206;2023-08-30T08:48:13;8.63;;;5.00;;
32250;SDS011;41295;48.518;9.206;2023-08-30T08:50:16;8.07;;;5.60;;
32250;SDS011;41295;48.518;9.206;2023-08-30T08:52:21;11.25;;;5.10;;
32250;SDS011;41295;48.518;9.206;2023-08-30T08:54:34;5.63;;;5.00;;
32250;SDS011;41295;48.518;9.206;2023-08-30T08:56:39;7.55;;;4.68;;
32250;SDS011;41295;48.518;9.206;2023-08-30T08:58:42;8.60;;;4.88;;
32250;SDS011;41295;48.518;9.206;2023-08-30T09:00:46;6.03;;;4.35;;
32250;SDS011;41295;48.518;9.206;2023-08-30T09:02:49;7.30;;;4.70;;
32250;SDS011;41295;48.518;9.206;2023-08-30T09:04:53;5.25;;;4.00;;
32250;SDS011;41295;48.518;9.206;2023-08-30T09:06:57;4.65;;;4.10;;
32250;SDS011;41295;48.518;9.206;2023-08-30T09:09:02;7.50;;;4.03;;
32250;SDS011;41295;48.518;9.206;2023-08-30T09:11:06;4.80;;;4.15;;
32250;SDS011;41295;48.518;9.206;2023-08-30T09:13:08;6.13;;;4.40;;
32250;SDS011;41295;48.518;9.206;2023-08-30T09:15:12;11.35;;;4.20;;
32250;SDS011;41295;48.518;9.206;2023-08-30T09:17:14;5.68;;;3.58;;
32250;SDS011;41295;48.518;9.206;2023-08-30T09:19:19;5.15;;;4.28;;
32250;SDS011;41295;48.518;9.206;2023-08-30T09:21:26;7.35;;;4.40;;
32250;SDS011;41295;48.518;9.206;2023-08-30T09:23:29;5.45;;;4.10;;
32250;SDS011;41295;48.518;9.206;2023-08-30T09:25:33;6.78;;;3.95;;
32250;SDS011;41295;48.518;9.206;2023-08-30T09:27:36;7.18;;;3.80;;
32250;SDS011;41295;48.518;9.206;2023-08-30T09:29:42;5.70;;;4.18;;
32250;SDS011;41295;48.518;9.206;2023-08-30T09:31:50;4.95;;;4.20;;
32250;SDS011;41295;48.518;9.206;2023-08-30T09:33:57;6.07;;;4.40;;
32250;SDS011;41295;48.518;9.206;2023-08-30T09:36:09;5.65;;;4.35;;
32250;SDS011;41295;48.518;9.206;2023-08-30T09:38:17;6.47;;;4.35;;
32250;SDS011;41295;48.518;9.206;2023-08-30T09:40:21;5.63;;;4.30;;
32250;SDS011;41295;48.518;9.206;2023-08-30T09:42:25;6.05;;;4.30;;
32250;SDS011;41295;48.518;9.206;2023-08-30T09:44:29;6.70;;;4.40;;
32250;SDS011;41295;48.518;9.206;2023-08-30T09:46:32;6.97;;;4.82;;
32250;SDS011;41295;48.518;9.206;2023-08-30T09:48:52;6.13;;;4.07;;
32250;SDS011;41295;48.518;9.206;2023-08-30T09:50:55;6.25;;;4.38;;
32250;SDS011;41295;48.518;9.206;2023-08-30T09:53:01;6.38;;;4.20;;
32250;SDS011;41295;48.518;9.206;2023-08-30T09:55:09;5.25;;;4.35;;
32250;SDS011;41295;48.518;9.206;2023-08-30T09:57:12;6.75;;;4.38;;
32250;SDS011;41295;48.518;9.206;2023-08-30T09:59:17;7.97;;;3.30;;
32250;SDS011;41295;48.518;9.206;2023-08-30T10:01:20;5.55;;;3.95;;
32250;SDS011;41295;48.518;9.206;2023-08-30T10:03:23;7.90;;;4.38;;
32250;SDS011;41295;48.518;9.206;2023-08-30T10:05:46;7.35;;;4.47;;
32250;SDS011;41295;48.518;9.206;2023-08-30T10:07:49;5.32;;;3.75;;
32250;SDS011;41295;48.518;9.206;2023-08-30T10:09:53;4.63;;;3.60;;
32250;SDS011;41295;48.518;9.206;2023-08-30T10:12:10;6.45;;;4.05;;
32250;SDS011;41295;48.518;9.206;2023-08-30T10:14:14;6.97;;;4.22;;
32250;SDS011;41295;48.518;9.206;2023-08-30T10:16:19;5.10;;;4.05;;
32250;SDS011;41295;48.518;9.206;2023-08-30T10:18:25;4.57;;;4.15;;
32250;SDS011;41295;48.518;9.206;2023-08-30T10:20:29;4.68;;;4.15;;
32250;SDS011;41295;48.518;9.206;2023-08-30T10:22:36;5.65;;;4.03;;
32250;SDS011;41295;48.518;9.206;2023-08-30T10:24:42;7.70;;;3.95;;
32250;SDS011;41295;48.518;9.206;2023-08-30T10:27:09;4.93;;;3.72;;
32250;SDS011;41295;48.518;9.206;2023-08-30T10:29:13;6.25;;;3.50;;
32250;SDS011;41295;48.518;9.206;2023-08-30T10:31:20;5.13;;;3.88;;
32250;SDS011;41295;48.518;9.206;2023-08-30T10:33:24;4.55;;;3.60;;
32250;SDS011;41295;48.518;9.206;2023-08-30T10:35:28;6.93;;;3.90;;
32250;SDS011;41295;48.518;9.206;2023-08-30T10:37:33;5.63;;;3.22;;
32250;SDS011;41295;48.518;9.206;2023-08-30T10:39:38;4.65;;;4.15;;
32250;SDS011;41295;48.518;9.206;2023-08-30T10:41:55;4.32;;;3.50;;
32250;SDS011;41295;48.518;9.206;2023-08-30T10:43:58;4.25;;;3.45;;
32250;SDS011;41295;48.518;9.206;2023-08-30T10:46:05;7.72;;;3.50;;
32250;SDS011;41295;48.518;9.206;2023-08-30T10:48:10;5.75;;;3.92;;
32250;SDS011;41295;48.518;9.206;2023-08-30T10:50:13;5.20;;;4.07;;
32250;SDS011;41295;48.518;9.206;2023-08-30T10:52:16;4.93;;;3.40;;
32250;SDS011;41295;48.518;9.206;2023-08-30T10:54:18;4.80;;;3.70;;
32250;SDS011;41295;48.518;9.206;2023-08-30T10:56:26;5.47;;;3.35;;
32250;SDS011;41295;48.518;9.206;2023-08-30T10:58:38;4.13;;;3.72;;
32250;SDS011;41295;48.518;9.206;2023-08-30T11:00:41;6.53;;;3.80;;
32250;SDS011;41295;48.518;9.206;2023-08-30T11:02:45;3.67;;;3.30;;
32250;SDS011;41295;48.518;9.206;2023-08-30T11:04:51;5.05;;;3.40;;
32250;SDS011;41295;48.518;9.206;2023-08-30T11:06:54;3.50;;;3.20;;
32250;SDS011;41295;48.518;9.206;2023-08-30T11:08:57;4.90;;;3.30;;
32250;SDS011;41295;48.518;9.206;2023-08-30T11:11:02;4.82;;;3.65;;
32250;SDS011;41295;48.518;9.206;2023-08-30T11:13:08;3.75;;;3.08;;
32250;SDS011;41295;48.518;9.206;2023-08-30T11:15:11;3.38;;;2.75;;
32250;SDS011;41295;48.518;9.206;2023-08-30T11:17:15;11.32;;;3.17;;
32250;SDS011;41295;48.518;9.206;2023-08-30T11:19:18;4.70;;;3.45;;
32250;SDS011;41295;48.518;9.206;2023-08-30T11:21:25;3.13;;;2.83;;
32250;SDS011;41295;48.518;9.206;2023-08-30T11:23:28;4.20;;;3.05;;
32250;SDS011;41295;48.518;9.206;2023-08-30T11:25:31;3.60;;;2.60;;
32250;SDS011;41295;48.518;9.206;2023-08-30T11:27:36;3.17;;;2.80;;
32250;SDS011;41295;48.518;9.206;2023-08-30T11:29:40;3.90;;;2.85;;
32250;SDS011;41295;48.518;9.206;2023-08-30T11:31:44;4.63;;;3.17;;
32250;SDS011;41295;48.518;9.206;2023-08-30T11:33:50;3.08;;;2.50;;
32250;SDS011;41295;48.518;9.206;2023-08-30T11:35:54;4.32;;;2.45;;
32250;SDS011;41295;48.518;9.206;2023-08-30T11:37:58;3.17;;;2.45;;
32250;SDS011;41295;48.518;9.206;2023-08-30T11:40:05;3.25;;;2.53;;
32250;SDS011;41295;48.518;9.206;2023-08-30T11:42:09;4.55;;;2.50;;
32250;SDS011;41295;48.518;9.206;2023-08-30T11:44:19;4.00;;;2.80;;
32250;SDS011;41295;48.518;9.206;2023-08-30T11:46:22;6.45;;;2.53;;
32250;SDS011;41295;48.518;9.206;2023-08-30T11:48:25;3.00;;;2.28;;
32250;SDS011;41295;48.518;9.206;2023-08-30T11:50:28;5.28;;;2.22;;
32250;SDS011;41295;48.518;9.206;2023-08-30T11:52:47;4.18;;;2.97;;
32250;SDS011;41295;48.518;9.206;2023-08-30T11:54:53;3.53;;;2.50;;
32250;SDS011;41295;48.518;9.206;2023-08-30T11:56:57;4.40;;;2.33;;
32250;SDS011;41295;48.518;9.206;2023-08-30T11:59:00;3.58;;;2.28;;
32250;SDS011;41295;48.518;9.206;2023-08-30T12:01:04;4.05;;;2.50;;
32250;SDS011;41295;48.518;9.206;2023-08-30T12:03:07;2.90;;;2.10;;
32250;SDS011;41295;48.518;9.206;2023-08-30T12:05:10;4.38;;;2.53;;
32250;SDS011;41295;48.518;9.206;2023-08-30T12:07:20;4.53;;;2.33;;
32250;SDS011;41295;48.518;9.206;2023-08-30T12:09:29;2.72;;;2.53;;
32250;SDS011;41295;48.518;9.206;2023-08-30T12:11:34;4.45;;;2.53;;
32250;SDS011;41295;48.518;9.206;2023-08-30T12:13:37;2.60;;;2.22;;
32250;SDS011;41295;48.518;9.206;2023-08-30T12:15:40;3.67;;;2.28;;
32250;SDS011;41295;48.518;9.206;2023-08-30T12:17:43;5.55;;;2.60;;
32250;SDS011;41295;48.518;9.206;2023-08-30T12:19:54;2.97;;;2.10;;
32250;SDS011;41295;48.518;9.206;2023-08-30T12:22:03;4.47;;;2.17;;
32250;SDS011;41295;48.518;9.206;2023-08-30T12:24:06;4.50;;;2.40;;
32250;SDS011;41295;48.518;9.206;2023-08-30T12:26:08;2.70;;;2.45;;